^^
Station Historical Data
 
Daily Summary for February 23, 2018 Units:  Both    English   Metric
« Previous Day
Next Day »
Daily Weekly Monthly Yearly Custom
  Current: High: Low: Average:
Temperature: 37.4 °F /  3 °C 37.8 °F /  3.2 °C 26.8 °F /  -2.9 °C 33.6 °F /  0.9 °C
Dew Point: 35.2 °F /  1.8 °C 35.4 °F /  1.9 °C 12.7 °F /  -10.7 °C 24.3 °F /  -4.3 °C
Humidity: 92% 92% 49% 69%
Wind Speed: 10.1mph /  16.3km/h 16.1mph /  25.9km/h - 3.5mph /  5.6km/h
Wind Gust: 15.0mph /  24.1km/h 19.0mph /  30.6km/h - -
WindSSW - - SSE
Pressure: 30.02 in /  1016.5 hPa 30.70 in /  1039.5 hPa 30.02 in /  1016.5 hPa -
Precipitation: 0.15 in /  3.81 mm      
Historical Graphs
 
 
Tabular Data for February 23, 2018
Time Temperature Dew Point Pressure Wind Wind Speed Wind Gust Humidity Rainfall Rate (Hourly) solar Conditions
00:00 30.6 °F /  -0.8 °C 16.0 °F /  -8.9 °C 30.66in /  1038.1hPa Calm     54% 0.00in /  0mm meteobridge W/m2
00:05 30.7 °F /  -0.7 °C 16.5 °F /  -8.6 °C 30.66in /  1038.1hPa Calm     55% 0.00in /  0mm meteobridge W/m2
00:10 30.9 °F /  -0.6 °C 15.8 °F /  -9 °C 30.66in /  1038.1hPa Calm   2.0mph /  3.2km/h 53% 0.00in /  0mm meteobridge W/m2
00:15 31.3 °F /  -0.4 °C 16.2 °F /  -8.8 °C 30.66in /  1038.1hPa Calm     53% 0.00in /  0mm meteobridge W/m2
00:20 31.5 °F /  -0.3 °C 15.4 °F /  -9.2 °C 30.65in /  1037.8hPa Calm     51% 0.00in /  0mm meteobridge W/m2
00:25 31.5 °F /  -0.3 °C 15.4 °F /  -9.2 °C 30.65in /  1037.8hPa Calm   1.0mph /  1.6km/h 51% 0.00in /  0mm meteobridge W/m2
00:31 31.6 °F /  -0.2 °C 15.1 °F /  -9.4 °C 30.66in /  1038.1hPa Calm   1.0mph /  1.6km/h 50% 0.00in /  0mm meteobridge W/m2
00:36 31.6 °F /  -0.2 °C 15.6 °F /  -9.1 °C 30.67in /  1038.5hPa Calm   1.0mph /  1.6km/h 51% 0.00in /  0mm meteobridge W/m2
00:41 31.6 °F /  -0.2 °C 15.1 °F /  -9.4 °C 30.68in /  1038.8hPa Calm     50% 0.00in /  0mm meteobridge W/m2
00:46 31.6 °F /  -0.2 °C 14.7 °F /  -9.6 °C 30.68in /  1038.8hPa Calm     49% 0.00in /  0mm meteobridge W/m2
00:51 31.6 °F /  -0.2 °C 14.7 °F /  -9.6 °C 30.68in /  1038.8hPa Calm     49% 0.00in /  0mm meteobridge W/m2
00:56 31.6 °F /  -0.2 °C 15.1 °F /  -9.4 °C 30.67in /  1038.5hPa NE 0.9mph /  1.4km/h 1.0mph /  1.6km/h 50% 0.00in /  0mm meteobridge W/m2
01:01 31.5 °F /  -0.3 °C 14.9 °F /  -9.5 °C 30.67in /  1038.5hPa Calm   2.0mph /  3.2km/h 50% 0.00in /  0mm meteobridge W/m2
01:06 31.3 °F /  -0.4 °C 15.3 °F /  -9.3 °C 30.67in /  1038.5hPa Calm   2.0mph /  3.2km/h 51% 0.00in /  0mm meteobridge W/m2
01:11 30.9 °F /  -0.6 °C 14.9 °F /  -9.5 °C 30.67in /  1038.5hPa NW 0.9mph /  1.4km/h 3.0mph /  4.8km/h 51% 0.00in /  0mm meteobridge W/m2
01:16 30.6 °F /  -0.8 °C 14.5 °F /  -9.7 °C 30.67in /  1038.5hPa Calm   2.0mph /  3.2km/h 51% 0.00in /  0mm meteobridge W/m2
01:22 30.4 °F /  -0.9 °C 14.9 °F /  -9.5 °C 30.67in /  1038.5hPa Calm     52% 0.00in /  0mm meteobridge W/m2
01:27 30.0 °F /  -1.1 °C 14.9 °F /  -9.5 °C 30.68in /  1038.8hPa Calm     53% 0.00in /  0mm meteobridge W/m2
01:32 29.8 °F /  -1.2 °C 14.7 °F /  -9.6 °C 30.68in /  1038.8hPa North 0.9mph /  1.4km/h 2.0mph /  3.2km/h 53% 0.00in /  0mm meteobridge W/m2
01:37 29.7 °F /  -1.3 °C 15.1 °F /  -9.4 °C 30.68in /  1038.8hPa Calm     54% 0.00in /  0mm meteobridge W/m2
01:42 29.5 °F /  -1.4 °C 15.3 °F /  -9.3 °C 30.68in /  1038.8hPa Calm     55% 0.00in /  0mm meteobridge W/m2
01:47 29.1 °F /  -1.6 °C 15.4 °F /  -9.2 °C 30.68in /  1038.8hPa Calm     56% 0.00in /  0mm meteobridge W/m2
01:52 28.9 °F /  -1.7 °C 15.6 °F /  -9.1 °C 30.68in /  1038.8hPa Calm   1.0mph /  1.6km/h 57% 0.00in /  0mm meteobridge W/m2
01:57 28.9 °F /  -1.7 °C 15.6 °F /  -9.1 °C 30.68in /  1038.8hPa Calm     57% 0.00in /  0mm meteobridge W/m2
02:02 28.8 °F /  -1.8 °C 15.4 °F /  -9.2 °C 30.68in /  1038.8hPa Calm     57% 0.00in /  0mm meteobridge W/m2
02:08 28.8 °F /  -1.8 °C 16.2 °F /  -8.8 °C 30.68in /  1038.8hPa Calm   1.0mph /  1.6km/h 59% 0.00in /  0mm meteobridge W/m2
02:13 28.6 °F /  -1.9 °C 15.6 °F /  -9.1 °C 30.68in /  1038.8hPa Calm   1.0mph /  1.6km/h 58% 0.00in /  0mm meteobridge W/m2
02:18 28.6 °F /  -1.9 °C 15.3 °F /  -9.3 °C 30.68in /  1038.8hPa Calm     57% 0.00in /  0mm meteobridge W/m2
02:23 28.6 °F /  -1.9 °C 16.2 °F /  -8.8 °C 30.68in /  1038.8hPa Calm     59% 0.00in /  0mm meteobridge W/m2
02:28 28.6 °F /  -1.9 °C 15.6 °F /  -9.1 °C 30.68in /  1038.8hPa Calm     58% 0.00in /  0mm meteobridge W/m2
02:33 28.6 °F /  -1.9 °C 15.3 °F /  -9.3 °C 30.68in /  1038.8hPa Calm     57% 0.00in /  0mm meteobridge W/m2
02:38 28.6 °F /  -1.9 °C 15.3 °F /  -9.3 °C 30.68in /  1038.8hPa Calm     57% 0.00in /  0mm meteobridge W/m2
02:44 28.4 °F /  -2 °C 15.1 °F /  -9.4 °C 30.68in /  1038.8hPa Calm     57% 0.00in /  0mm meteobridge W/m2
02:49 28.2 °F /  -2.1 °C 14.5 °F /  -9.7 °C 30.68in /  1038.8hPa Calm     56% 0.00in /  0mm meteobridge W/m2
02:54 28.2 °F /  -2.1 °C 14.9 °F /  -9.5 °C 30.68in /  1038.8hPa Calm     57% 0.00in /  0mm meteobridge W/m2
02:59 28.0 °F /  -2.2 °C 14.7 °F /  -9.6 °C 30.68in /  1038.8hPa Calm     57% 0.00in /  0mm meteobridge W/m2
03:04 27.9 °F /  -2.3 °C 14.5 °F /  -9.7 °C 30.68in /  1038.8hPa Calm     57% 0.00in /  0mm meteobridge W/m2
03:09 27.9 °F /  -2.3 °C 14.5 °F /  -9.7 °C 30.68in /  1038.8hPa Calm     57% 0.00in /  0mm meteobridge W/m2
03:14 27.7 °F /  -2.4 °C 14.4 °F /  -9.8 °C 30.68in /  1038.8hPa Calm     57% 0.00in /  0mm meteobridge W/m2
03:19 27.7 °F /  -2.4 °C 14.4 °F /  -9.8 °C 30.68in /  1038.8hPa Calm     57% 0.00in /  0mm meteobridge W/m2
03:24 27.5 °F /  -2.5 °C 14.7 °F /  -9.6 °C 30.68in /  1038.8hPa Calm     58% 0.00in /  0mm meteobridge W/m2
03:29 27.5 °F /  -2.5 °C 14.2 °F /  -9.9 °C 30.68in /  1038.8hPa Calm   1.0mph /  1.6km/h 57% 0.00in /  0mm meteobridge W/m2
03:34 27.5 °F /  -2.5 °C 13.8 °F /  -10.1 °C 30.69in /  1039.2hPa Calm   1.0mph /  1.6km/h 56% 0.00in /  0mm meteobridge W/m2
03:39 27.5 °F /  -2.5 °C 13.8 °F /  -10.1 °C 30.69in /  1039.2hPa Calm     56% 0.00in /  0mm meteobridge W/m2
03:44 27.7 °F /  -2.4 °C 12.7 °F /  -10.7 °C 30.69in /  1039.2hPa Calm   1.0mph /  1.6km/h 53% 0.00in /  0mm meteobridge W/m2
03:50 27.7 °F /  -2.4 °C 12.7 °F /  -10.7 °C 30.69in /  1039.2hPa Calm   1.0mph /  1.6km/h 53% 0.00in /  0mm meteobridge W/m2
03:55 27.9 °F /  -2.3 °C 12.9 °F /  -10.6 °C 30.69in /  1039.2hPa Calm     53% 0.00in /  0mm meteobridge W/m2
04:00 27.7 °F /  -2.4 °C 12.7 °F /  -10.7 °C 30.69in /  1039.2hPa Calm     53% 0.00in /  0mm meteobridge W/m2
04:05 27.7 °F /  -2.4 °C 12.7 °F /  -10.7 °C 30.69in /  1039.2hPa Calm   1.0mph /  1.6km/h 53% 0.00in /  0mm meteobridge W/m2
04:10 27.7 °F /  -2.4 °C 12.7 °F /  -10.7 °C 30.69in /  1039.2hPa Calm     53% 0.00in /  0mm meteobridge W/m2
04:15 27.5 °F /  -2.5 °C 13.1 °F /  -10.5 °C 30.69in /  1039.2hPa Calm     54% 0.00in /  0mm meteobridge W/m2
04:21 27.5 °F /  -2.5 °C 13.1 °F /  -10.5 °C 30.69in /  1039.2hPa Calm     54% 0.00in /  0mm meteobridge W/m2
04:26 27.3 °F /  -2.6 °C 12.9 °F /  -10.6 °C 30.69in /  1039.2hPa Calm     54% 0.00in /  0mm meteobridge W/m2
04:31 27.3 °F /  -2.6 °C 13.3 °F /  -10.4 °C 30.69in /  1039.2hPa Calm   1.0mph /  1.6km/h 55% 0.00in /  0mm meteobridge W/m2
04:36 27.3 °F /  -2.6 °C 13.6 °F /  -10.2 °C 30.69in /  1039.2hPa Calm   2.0mph /  3.2km/h 56% 0.00in /  0mm meteobridge W/m2
04:42 27.3 °F /  -2.6 °C 13.3 °F /  -10.4 °C 30.69in /  1039.2hPa Calm   1.0mph /  1.6km/h 55% 0.00in /  0mm meteobridge W/m2
04:47 27.3 °F /  -2.6 °C 13.3 °F /  -10.4 °C 30.69in /  1039.2hPa Calm   2.0mph /  3.2km/h 55% 0.00in /  0mm meteobridge W/m2
04:52 27.3 °F /  -2.6 °C 13.6 °F /  -10.2 °C 30.69in /  1039.2hPa Calm   2.0mph /  3.2km/h 56% 0.00in /  0mm meteobridge W/m2
04:57 27.3 °F /  -2.6 °C 13.6 °F /  -10.2 °C 30.69in /  1039.2hPa Calm     56% 0.00in /  0mm meteobridge W/m2
05:02 27.1 °F /  -2.7 °C 14.0 °F /  -10 °C 30.69in /  1039.2hPa Calm   1.0mph /  1.6km/h 57% 0.00in /  0mm meteobridge W/m2
05:07 27.1 °F /  -2.7 °C 14.0 °F /  -10 °C 30.69in /  1039.2hPa North 0.9mph /  1.4km/h 2.0mph /  3.2km/h 57% 0.00in /  0mm meteobridge W/m2
05:12 27.1 °F /  -2.7 °C 14.4 °F /  -9.8 °C 30.70in /  1039.5hPa Calm   1.0mph /  1.6km/h 58% 0.00in /  0mm meteobridge W/m2
05:17 27.1 °F /  -2.7 °C 14.0 °F /  -10 °C 30.69in /  1039.2hPa Calm   2.0mph /  3.2km/h 57% 0.00in /  0mm meteobridge W/m2
05:22 27.1 °F /  -2.7 °C 14.4 °F /  -9.8 °C 30.70in /  1039.5hPa Calm     58% 0.00in /  0mm meteobridge W/m2
05:27 27.0 °F /  -2.8 °C 14.2 °F /  -9.9 °C 30.69in /  1039.2hPa Calm     58% 0.00in /  0mm meteobridge W/m2
05:33 26.8 °F /  -2.9 °C 14.0 °F /  -10 °C 30.69in /  1039.2hPa Calm     58% 0.00in /  0mm meteobridge W/m2
05:38 26.8 °F /  -2.9 °C 14.4 °F /  -9.8 °C 30.69in /  1039.2hPa Calm   1.0mph /  1.6km/h 59% 0.00in /  0mm meteobridge W/m2
05:43 26.8 °F /  -2.9 °C 14.0 °F /  -10 °C 30.69in /  1039.2hPa Calm     58% 0.00in /  0mm meteobridge W/m2
05:48 27.0 °F /  -2.8 °C 14.5 °F /  -9.7 °C 30.69in /  1039.2hPa Calm     59% 0.00in /  0mm meteobridge W/m2
05:53 27.0 °F /  -2.8 °C 14.2 °F /  -9.9 °C 30.68in /  1038.8hPa Calm   1.0mph /  1.6km/h 58% 0.00in /  0mm meteobridge W/m2
05:58 27.0 °F /  -2.8 °C 14.5 °F /  -9.7 °C 30.68in /  1038.8hPa Calm   1.0mph /  1.6km/h 59% 0.00in /  0mm meteobridge W/m2
06:03 27.0 °F /  -2.8 °C 14.9 °F /  -9.5 °C 30.68in /  1038.8hPa Calm   1.0mph /  1.6km/h 60% 0.00in /  0mm meteobridge W/m2
06:08 27.0 °F /  -2.8 °C 14.5 °F /  -9.7 °C 30.68in /  1038.8hPa Calm     59% 0.00in /  0mm meteobridge W/m2
06:13 27.0 °F /  -2.8 °C 14.5 °F /  -9.7 °C 30.68in /  1038.8hPa Calm   1.0mph /  1.6km/h 59% 0.00in /  0mm meteobridge W/m2
06:18 26.8 °F /  -2.9 °C 14.7 °F /  -9.6 °C 30.69in /  1039.2hPa Calm   1.0mph /  1.6km/h 60% 0.00in /  0mm meteobridge W/m2
06:23 26.8 °F /  -2.9 °C 14.7 °F /  -9.6 °C 30.69in /  1039.2hPa Calm   2.0mph /  3.2km/h 60% 0.00in /  0mm meteobridge W/m2
06:28 26.8 °F /  -2.9 °C 14.7 °F /  -9.6 °C 30.68in /  1038.8hPa Calm   1.0mph /  1.6km/h 60% 0.00in /  0mm meteobridge W/m2
06:33 26.8 °F /  -2.9 °C 14.7 °F /  -9.6 °C 30.69in /  1039.2hPa Calm   2.0mph /  3.2km/h 60% 0.00in /  0mm meteobridge W/m2
06:39 27.0 °F /  -2.8 °C 14.9 °F /  -9.5 °C 30.68in /  1038.8hPa Calm     60% 0.00in /  0mm meteobridge W/m2
06:44 27.0 °F /  -2.8 °C 15.3 °F /  -9.3 °C 30.68in /  1038.8hPa Calm     61% 0.00in /  0mm meteobridge W/m2
06:49 27.0 °F /  -2.8 °C 15.6 °F /  -9.1 °C 30.69in /  1039.2hPa Calm   2.0mph /  3.2km/h 62% 0.00in /  0mm meteobridge W/m2
06:54 27.0 °F /  -2.8 °C 15.6 °F /  -9.1 °C 30.69in /  1039.2hPa Calm   1.0mph /  1.6km/h 62% 0.00in /  0mm meteobridge W/m2
06:59 27.1 °F /  -2.7 °C 15.8 °F /  -9 °C 30.69in /  1039.2hPa Calm     62% 0.00in /  0mm meteobridge W/m2
07:04 27.3 °F /  -2.6 °C 16.3 °F /  -8.7 °C 30.69in /  1039.2hPa Calm   1.0mph /  1.6km/h 63% 0.00in /  0mm meteobridge W/m2
07:09 27.5 °F /  -2.5 °C 16.5 °F /  -8.6 °C 30.70in /  1039.5hPa Calm   2.0mph /  3.2km/h 63% 0.00in /  0mm meteobridge W/m2
07:14 27.9 °F /  -2.3 °C 16.9 °F /  -8.4 °C 30.70in /  1039.5hPa Calm   1.0mph /  1.6km/h 63% 0.00in /  0mm meteobridge W/m2
07:19 28.2 °F /  -2.1 °C 17.2 °F /  -8.2 °C 30.70in /  1039.5hPa ENE 0.9mph /  1.4km/h 3.0mph /  4.8km/h 63% 0.00in /  0mm meteobridge W/m2
07:24 28.6 °F /  -1.9 °C 17.6 °F /  -8 °C 30.70in /  1039.5hPa Calm   1.0mph /  1.6km/h 63% 0.00in /  0mm meteobridge W/m2
07:29 28.8 °F /  -1.8 °C 17.8 °F /  -7.9 °C 30.70in /  1039.5hPa Calm     63% 0.00in /  0mm meteobridge W/m2
07:34 28.9 °F /  -1.7 °C 18.0 °F /  -7.8 °C 30.70in /  1039.5hPa Calm   1.0mph /  1.6km/h 63% 0.00in /  0mm meteobridge W/m2
07:40 29.5 °F /  -1.4 °C 18.9 °F /  -7.3 °C 30.70in /  1039.5hPa NE 0.9mph /  1.4km/h 2.0mph /  3.2km/h 64% 0.00in /  0mm meteobridge W/m2
07:45 29.8 °F /  -1.2 °C 19.2 °F /  -7.1 °C 30.69in /  1039.2hPa Calm   1.0mph /  1.6km/h 64% 0.00in /  0mm meteobridge W/m2
07:50 30.6 °F /  -0.8 °C 19.0 °F /  -7.2 °C 30.69in /  1039.2hPa Calm   2.0mph /  3.2km/h 62% 0.00in /  0mm meteobridge W/m2
07:55 31.1 °F /  -0.5 °C 18.9 °F /  -7.3 °C 30.69in /  1039.2hPa Calm   3.0mph /  4.8km/h 60% 0.00in /  0mm meteobridge W/m2
08:00 31.6 °F /  -0.2 °C 19.0 °F /  -7.2 °C 30.69in /  1039.2hPa SSE 0.9mph /  1.4km/h 4.0mph /  6.4km/h 59% 0.00in /  0mm meteobridge W/m2
08:06 32.0 °F /  0 °C 18.9 °F /  -7.3 °C 30.68in /  1038.8hPa East 0.9mph /  1.4km/h 3.0mph /  4.8km/h 58% 0.00in /  0mm meteobridge W/m2
08:11 32.4 °F /  0.2 °C 19.2 °F /  -7.1 °C 30.68in /  1038.8hPa South 2.0mph /  3.2km/h 4.0mph /  6.4km/h 58% 0.00in /  0mm meteobridge W/m2
08:16 32.9 °F /  0.5 °C 20.1 °F /  -6.6 °C 30.68in /  1038.8hPa Calm   3.0mph /  4.8km/h 59% 0.00in /  0mm meteobridge W/m2
08:21 33.3 °F /  0.7 °C 19.2 °F /  -7.1 °C 30.67in /  1038.5hPa SE 0.9mph /  1.4km/h 9.0mph /  14.5km/h 56% 0.00in /  0mm meteobridge W/m2
08:26 34.0 °F /  1.1 °C 20.3 °F /  -6.5 °C 30.68in /  1038.8hPa Calm   3.0mph /  4.8km/h 57% 0.00in /  0mm meteobridge W/m2
08:31 34.2 °F /  1.2 °C 20.8 °F /  -6.2 °C 30.67in /  1038.5hPa ESE 4.0mph /  6.4km/h 4.0mph /  6.4km/h 58% 0.00in /  0mm meteobridge W/m2
08:36 34.3 °F /  1.3 °C 21.0 °F /  -6.1 °C 30.67in /  1038.5hPa Calm   3.0mph /  4.8km/h 58% 0.00in /  0mm meteobridge W/m2
08:41 34.9 °F /  1.6 °C 21.9 °F /  -5.6 °C 30.67in /  1038.5hPa SE 6.9mph /  11.1km/h 7.0mph /  11.3km/h 59% 0.00in /  0mm meteobridge W/m2
08:46 34.3 °F /  1.3 °C 21.6 °F /  -5.8 °C 30.67in /  1038.5hPa ENE 0.9mph /  1.4km/h 4.0mph /  6.4km/h 59% 0.00in /  0mm meteobridge W/m2
08:51 34.9 °F /  1.6 °C 22.5 °F /  -5.3 °C 30.67in /  1038.5hPa ESE 2.9mph /  4.7km/h 4.0mph /  6.4km/h 60% 0.00in /  0mm meteobridge W/m2
08:56 35.4 °F /  1.9 °C 23.4 °F /  -4.8 °C 30.67in /  1038.5hPa SSE 2.9mph /  4.7km/h 4.0mph /  6.4km/h 61% 0.00in /  0mm meteobridge W/m2
09:01 36.0 °F /  2.2 °C 23.0 °F /  -5 °C 30.67in /  1038.5hPa Calm   3.0mph /  4.8km/h 59% 0.00in /  0mm meteobridge W/m2
09:06 36.0 °F /  2.2 °C 22.6 °F /  -5.2 °C 30.67in /  1038.5hPa SE 2.0mph /  3.2km/h 6.0mph /  9.7km/h 58% 0.00in /  0mm meteobridge W/m2
09:12 35.8 °F /  2.1 °C 22.1 °F /  -5.5 °C 30.67in /  1038.5hPa SE 2.9mph /  4.7km/h 3.0mph /  4.8km/h 57% 0.00in /  0mm meteobridge W/m2
09:17 36.3 °F /  2.4 °C 23.0 °F /  -5 °C 30.67in /  1038.5hPa South 2.0mph /  3.2km/h 3.0mph /  4.8km/h 58% 0.00in /  0mm meteobridge W/m2
09:22 36.9 °F /  2.7 °C 22.6 °F /  -5.2 °C 30.67in /  1038.5hPa Calm   2.0mph /  3.2km/h 56% 0.00in /  0mm meteobridge W/m2
09:27 37.2 °F /  2.9 °C 23.0 °F /  -5 °C 30.67in /  1038.5hPa SSE 4.9mph /  7.9km/h 5.0mph /  8km/h 56% 0.00in /  0mm meteobridge W/m2
09:32 36.7 °F /  2.6 °C 22.8 °F /  -5.1 °C 30.66in /  1038.1hPa SE 2.0mph /  3.2km/h 10.0mph /  16.1km/h 57% 0.00in /  0mm meteobridge W/m2
09:37 36.5 °F /  2.5 °C 23.5 °F /  -4.7 °C 30.67in /  1038.5hPa SSE 2.9mph /  4.7km/h 9.0mph /  14.5km/h 59% 0.00in /  0mm meteobridge W/m2
09:42 36.9 °F /  2.7 °C 23.9 °F /  -4.5 °C 30.66in /  1038.1hPa ESE 2.9mph /  4.7km/h 6.0mph /  9.7km/h 59% 0.00in /  0mm meteobridge W/m2
09:47 36.9 °F /  2.7 °C 24.3 °F /  -4.3 °C 30.66in /  1038.1hPa Calm   12.0mph /  19.3km/h 60% 0.00in /  0mm meteobridge W/m2
09:52 36.5 °F /  2.5 °C 23.5 °F /  -4.7 °C 30.66in /  1038.1hPa SE 0.9mph /  1.4km/h 7.0mph /  11.3km/h 59% 0.00in /  0mm meteobridge W/m2
09:57 36.9 °F /  2.7 °C 24.3 °F /  -4.3 °C 30.66in /  1038.1hPa SE 2.9mph /  4.7km/h 5.0mph /  8km/h 60% 0.00in /  0mm meteobridge W/m2
10:02 37.6 °F /  3.1 °C 24.6 °F /  -4.1 °C 30.66in /  1038.1hPa ESE 2.0mph /  3.2km/h 7.0mph /  11.3km/h 59% 0.00in /  0mm meteobridge W/m2
10:07 37.8 °F /  3.2 °C 24.3 °F /  -4.3 °C 30.65in /  1037.8hPa SE 2.0mph /  3.2km/h 5.0mph /  8km/h 58% 0.00in /  0mm meteobridge W/m2
10:12 37.6 °F /  3.1 °C 24.1 °F /  -4.4 °C 30.65in /  1037.8hPa SE 4.0mph /  6.4km/h 6.0mph /  9.7km/h 58% 0.00in /  0mm meteobridge W/m2
10:17 37.2 °F /  2.9 °C 24.6 °F /  -4.1 °C 30.64in /  1037.5hPa SE 0.9mph /  1.4km/h 7.0mph /  11.3km/h 60% 0.00in /  0mm meteobridge W/m2
10:23 36.9 °F /  2.7 °C 24.3 °F /  -4.3 °C 30.64in /  1037.5hPa SE 6.0mph /  9.7km/h 12.0mph /  19.3km/h 60% 0.00in /  0mm meteobridge W/m2
10:28 36.9 °F /  2.7 °C 24.3 °F /  -4.3 °C 30.64in /  1037.5hPa NNE 4.0mph /  6.4km/h 10.0mph /  16.1km/h 60% 0.00in /  0mm meteobridge W/m2
10:33 37.0 °F /  2.8 °C 24.4 °F /  -4.2 °C 30.64in /  1037.5hPa SE 2.0mph /  3.2km/h 7.0mph /  11.3km/h 60% 0.00in /  0mm meteobridge W/m2
10:38 36.9 °F /  2.7 °C 24.3 °F /  -4.3 °C 30.63in /  1037.1hPa ENE 0.9mph /  1.4km/h 9.0mph /  14.5km/h 60% 0.00in /  0mm meteobridge W/m2
10:43 36.9 °F /  2.7 °C 25.0 °F /  -3.9 °C 30.63in /  1037.1hPa SE 2.9mph /  4.7km/h 4.0mph /  6.4km/h 62% 0.00in /  0mm meteobridge W/m2
10:48 36.7 °F /  2.6 °C 25.0 °F /  -3.9 °C 30.63in /  1037.1hPa ESE 0.9mph /  1.4km/h 9.0mph /  14.5km/h 62% 0.00in /  0mm meteobridge W/m2
10:53 36.3 °F /  2.4 °C 25.0 °F /  -3.9 °C 30.63in /  1037.1hPa ENE 0.9mph /  1.4km/h 10.0mph /  16.1km/h 63% 0.00in /  0mm meteobridge W/m2
10:58 36.3 °F /  2.4 °C 25.7 °F /  -3.5 °C 30.63in /  1037.1hPa ESE 2.0mph /  3.2km/h 6.0mph /  9.7km/h 65% 0.00in /  0mm meteobridge W/m2
11:03 36.7 °F /  2.6 °C 26.1 °F /  -3.3 °C 30.63in /  1037.1hPa NNE 2.9mph /  4.7km/h 4.0mph /  6.4km/h 65% 0.00in /  0mm meteobridge W/m2
11:08 37.0 °F /  2.8 °C 25.7 °F /  -3.5 °C 30.62in /  1036.8hPa ENE 4.9mph /  7.9km/h 6.0mph /  9.7km/h 63% 0.00in /  0mm meteobridge W/m2
11:13 37.2 °F /  2.9 °C 25.7 °F /  -3.5 °C 30.62in /  1036.8hPa SE 2.0mph /  3.2km/h 4.0mph /  6.4km/h 63% 0.00in /  0mm meteobridge W/m2
11:18 37.0 °F /  2.8 °C 25.2 °F /  -3.8 °C 30.62in /  1036.8hPa South 4.0mph /  6.4km/h 4.0mph /  6.4km/h 62% 0.00in /  0mm meteobridge W/m2
11:23 36.3 °F /  2.4 °C 25.0 °F /  -3.9 °C 30.62in /  1036.8hPa East 0.9mph /  1.4km/h 6.0mph /  9.7km/h 63% 0.00in /  0mm meteobridge W/m2
11:28 36.3 °F /  2.4 °C 25.3 °F /  -3.7 °C 30.62in /  1036.8hPa SE 2.0mph /  3.2km/h 7.0mph /  11.3km/h 64% 0.00in /  0mm meteobridge W/m2
11:33 36.1 °F /  2.3 °C 25.2 °F /  -3.8 °C 30.62in /  1036.8hPa SSE 0.9mph /  1.4km/h 8.0mph /  12.9km/h 64% 0.00in /  0mm meteobridge W/m2
11:39 36.3 °F /  2.4 °C 25.3 °F /  -3.7 °C 30.62in /  1036.8hPa Calm   3.0mph /  4.8km/h 64% 0.00in /  0mm meteobridge W/m2
11:44 36.7 °F /  2.6 °C 25.7 °F /  -3.5 °C 30.62in /  1036.8hPa Calm   6.0mph /  9.7km/h 64% 0.00in /  0mm meteobridge W/m2
11:49 36.9 °F /  2.7 °C 25.5 °F /  -3.6 °C 30.61in /  1036.5hPa SE 2.0mph /  3.2km/h 3.0mph /  4.8km/h 63% 0.00in /  0mm meteobridge W/m2
11:54 36.5 °F /  2.5 °C 25.5 °F /  -3.6 °C 30.60in /  1036.1hPa NW 0.9mph /  1.4km/h 4.0mph /  6.4km/h 64% 0.00in /  0mm meteobridge W/m2
11:59 36.1 °F /  2.3 °C 25.2 °F /  -3.8 °C 30.59in /  1035.8hPa East 0.9mph /  1.4km/h 2.0mph /  3.2km/h 64% 0.00in /  0mm meteobridge W/m2
12:04 36.3 °F /  2.4 °C 25.3 °F /  -3.7 °C 30.59in /  1035.8hPa SE 4.0mph /  6.4km/h 7.0mph /  11.3km/h 64% 0.00in /  0mm meteobridge W/m2
12:09 36.1 °F /  2.3 °C 25.5 °F /  -3.6 °C 30.59in /  1035.8hPa ESE 2.0mph /  3.2km/h 4.0mph /  6.4km/h 65% 0.00in /  0mm meteobridge W/m2
12:14 36.0 °F /  2.2 °C 25.0 °F /  -3.9 °C 30.59in /  1035.8hPa SE 4.0mph /  6.4km/h 5.0mph /  8km/h 64% 0.00in /  0mm meteobridge W/m2
12:19 35.8 °F /  2.1 °C 24.8 °F /  -4 °C 30.59in /  1035.8hPa SE 2.0mph /  3.2km/h 3.0mph /  4.8km/h 64% 0.00in /  0mm meteobridge W/m2
12:24 35.8 °F /  2.1 °C 24.4 °F /  -4.2 °C 30.58in /  1035.4hPa SE 2.0mph /  3.2km/h 7.0mph /  11.3km/h 63% 0.00in /  0mm meteobridge W/m2
12:29 35.4 °F /  1.9 °C 24.4 °F /  -4.2 °C 30.58in /  1035.4hPa Calm   2.0mph /  3.2km/h 64% 0.00in /  0mm meteobridge W/m2
12:34 35.8 °F /  2.1 °C 24.8 °F /  -4 °C 30.58in /  1035.4hPa Calm   4.0mph /  6.4km/h 64% 0.00in /  0mm meteobridge W/m2
12:40 36.0 °F /  2.2 °C 24.6 °F /  -4.1 °C 30.58in /  1035.4hPa SE 2.0mph /  3.2km/h 6.0mph /  9.7km/h 63% 0.00in /  0mm meteobridge W/m2
12:45 35.8 °F /  2.1 °C 25.2 °F /  -3.8 °C 30.57in /  1035.1hPa SE 2.0mph /  3.2km/h 4.0mph /  6.4km/h 65% 0.00in /  0mm meteobridge W/m2
12:50 35.8 °F /  2.1 °C 25.2 °F /  -3.8 °C 30.57in /  1035.1hPa SE 4.0mph /  6.4km/h 5.0mph /  8km/h 65% 0.00in /  0mm meteobridge W/m2
12:55 36.0 °F /  2.2 °C 25.3 °F /  -3.7 °C 30.56in /  1034.8hPa Calm   3.0mph /  4.8km/h 65% 0.00in /  0mm meteobridge W/m2
13:00 36.3 °F /  2.4 °C 25.7 °F /  -3.5 °C 30.57in /  1035.1hPa SE 2.9mph /  4.7km/h 5.0mph /  8km/h 65% 0.00in /  0mm meteobridge W/m2
13:05 36.3 °F /  2.4 °C 25.3 °F /  -3.7 °C 30.56in /  1034.8hPa SE 2.0mph /  3.2km/h 6.0mph /  9.7km/h 64% 0.00in /  0mm meteobridge W/m2
13:10 36.3 °F /  2.4 °C 26.1 °F /  -3.3 °C 30.55in /  1034.4hPa SE 0.9mph /  1.4km/h 4.0mph /  6.4km/h 66% 0.00in /  0mm meteobridge W/m2
13:15 36.5 °F /  2.5 °C 26.2 °F /  -3.2 °C 30.55in /  1034.4hPa SE 2.0mph /  3.2km/h 4.0mph /  6.4km/h 66% 0.00in /  0mm meteobridge W/m2
13:20 36.9 °F /  2.7 °C 26.6 °F /  -3 °C 30.55in /  1034.4hPa ESE 2.9mph /  4.7km/h 8.0mph /  12.9km/h 66% 0.00in /  0mm meteobridge W/m2
13:25 36.3 °F /  2.4 °C 26.4 °F /  -3.1 °C 30.54in /  1034.1hPa SSE 4.0mph /  6.4km/h 8.0mph /  12.9km/h 67% 0.00in /  0mm meteobridge W/m2
13:30 36.3 °F /  2.4 °C 26.8 °F /  -2.9 °C 30.53in /  1033.7hPa SSE 2.9mph /  4.7km/h 9.0mph /  14.5km/h 68% 0.00in /  0mm meteobridge W/m2
13:35 36.1 °F /  2.3 °C 26.6 °F /  -3 °C 30.53in /  1033.7hPa ESE 2.9mph /  4.7km/h 6.0mph /  9.7km/h 68% 0.00in /  0mm meteobridge W/m2
13:40 36.3 °F /  2.4 °C 26.8 °F /  -2.9 °C 30.51in /  1033.1hPa SE 4.0mph /  6.4km/h 7.0mph /  11.3km/h 68% 0.00in /  0mm meteobridge W/m2
13:45 36.3 °F /  2.4 °C 27.1 °F /  -2.7 °C 30.50in /  1032.7hPa SE 2.0mph /  3.2km/h 5.0mph /  8km/h 69% 0.00in /  0mm meteobridge W/m2
13:51 36.5 °F /  2.5 °C 27.3 °F /  -2.6 °C 30.50in /  1032.7hPa SE 2.9mph /  4.7km/h 6.0mph /  9.7km/h 69% 0.00in /  0mm meteobridge W/m2
13:56 36.7 °F /  2.6 °C 27.9 °F /  -2.3 °C 30.49in /  1032.4hPa SE 4.0mph /  6.4km/h 5.0mph /  8km/h 70% 0.00in /  0mm meteobridge W/m2
14:01 36.7 °F /  2.6 °C 27.5 °F /  -2.5 °C 30.49in /  1032.4hPa SE 2.9mph /  4.7km/h 4.0mph /  6.4km/h 69% 0.00in /  0mm meteobridge W/m2
14:06 36.7 °F /  2.6 °C 27.9 °F /  -2.3 °C 30.48in /  1032.1hPa SE 0.9mph /  1.4km/h 5.0mph /  8km/h 70% 0.00in /  0mm meteobridge W/m2
14:11 36.3 °F /  2.4 °C 27.5 °F /  -2.5 °C 30.48in /  1032.1hPa SE 2.0mph /  3.2km/h 5.0mph /  8km/h 70% 0.00in /  0mm meteobridge W/m2
14:16 36.1 °F /  2.3 °C 27.7 °F /  -2.4 °C 30.47in /  1031.7hPa SE 2.9mph /  4.7km/h 4.0mph /  6.4km/h 71% 0.00in /  0mm meteobridge W/m2
14:21 36.1 °F /  2.3 °C 28.0 °F /  -2.2 °C 30.47in /  1031.7hPa SE 4.0mph /  6.4km/h 5.0mph /  8km/h 72% 0.00in /  0mm meteobridge W/m2
14:26 36.1 °F /  2.3 °C 28.0 °F /  -2.2 °C 30.47in /  1031.7hPa SE 2.0mph /  3.2km/h 4.0mph /  6.4km/h 72% 0.00in /  0mm meteobridge W/m2
14:31 36.1 °F /  2.3 °C 28.4 °F /  -2 °C 30.47in /  1031.7hPa SE 2.9mph /  4.7km/h 6.0mph /  9.7km/h 73% 0.00in /  0mm meteobridge W/m2
14:36 36.1 °F /  2.3 °C 28.4 °F /  -2 °C 30.47in /  1031.7hPa SE 4.9mph /  7.9km/h 5.0mph /  8km/h 73% 0.00in /  0mm meteobridge W/m2
14:42 36.0 °F /  2.2 °C 28.2 °F /  -2.1 °C 30.46in /  1031.4hPa SSE 4.0mph /  6.4km/h 5.0mph /  8km/h 73% 0.00in /  0mm meteobridge W/m2
14:47 36.1 °F /  2.3 °C 28.4 °F /  -2 °C 30.46in /  1031.4hPa SE 4.0mph /  6.4km/h 9.0mph /  14.5km/h 73% 0.00in /  0mm meteobridge W/m2
14:52 36.1 °F /  2.3 °C 28.4 °F /  -2 °C 30.45in /  1031hPa SE 4.0mph /  6.4km/h 6.0mph /  9.7km/h 73% 0.00in /  0mm meteobridge W/m2
14:57 36.1 °F /  2.3 °C 28.4 °F /  -2 °C 30.45in /  1031hPa SE 4.0mph /  6.4km/h 5.0mph /  8km/h 73% 0.00in /  0mm meteobridge W/m2
15:02 36.1 °F /  2.3 °C 28.6 °F /  -1.9 °C 30.45in /  1031hPa SE 2.9mph /  4.7km/h 5.0mph /  8km/h 74% 0.00in /  0mm meteobridge W/m2
15:07 36.3 °F /  2.4 °C 28.6 °F /  -1.9 °C 30.45in /  1031hPa SSE 4.0mph /  6.4km/h 11.0mph /  17.7km/h 73% 0.00in /  0mm meteobridge W/m2
15:12 36.5 °F /  2.5 °C 28.8 °F /  -1.8 °C 30.45in /  1031hPa SSE 4.0mph /  6.4km/h 9.0mph /  14.5km/h 73% 0.00in /  0mm meteobridge W/m2
15:17 36.5 °F /  2.5 °C 28.8 °F /  -1.8 °C 30.46in /  1031.4hPa South 6.0mph /  9.7km/h 12.0mph /  19.3km/h 73% 0.00in /  0mm meteobridge W/m2
15:22 36.7 °F /  2.6 °C 28.8 °F /  -1.8 °C 30.46in /  1031.4hPa SE 6.0mph /  9.7km/h 10.0mph /  16.1km/h 73% 0.00in /  0mm meteobridge W/m2
15:28 36.7 °F /  2.6 °C 28.8 °F /  -1.8 °C 30.45in /  1031hPa SSE 4.9mph /  7.9km/h 7.0mph /  11.3km/h 73% 0.00in /  0mm meteobridge W/m2
15:33 36.7 °F /  2.6 °C 28.8 °F /  -1.8 °C 30.44in /  1030.7hPa SE 6.0mph /  9.7km/h 12.0mph /  19.3km/h 73% 0.00in /  0mm meteobridge W/m2
15:38 36.3 °F /  2.4 °C 28.6 °F /  -1.9 °C 30.43in /  1030.4hPa SSE 8.9mph /  14.3km/h 10.0mph /  16.1km/h 73% 0.00in /  0mm meteobridge W/m2
15:43 36.3 °F /  2.4 °C 28.6 °F /  -1.9 °C 30.42in /  1030hPa SSE 6.0mph /  9.7km/h 12.0mph /  19.3km/h 73% 0.00in /  0mm meteobridge W/m2
15:48 36.3 °F /  2.4 °C 28.8 °F /  -1.8 °C 30.42in /  1030hPa South 8.9mph /  14.3km/h 11.0mph /  17.7km/h 74% 0.00in /  0mm meteobridge W/m2
15:53 36.3 °F /  2.4 °C 28.8 °F /  -1.8 °C 30.42in /  1030hPa South 10.1mph /  16.3km/h 11.0mph /  17.7km/h 74% 0.00in /  0mm meteobridge W/m2
15:59 36.1 °F /  2.3 °C 28.9 °F /  -1.7 °C 30.42in /  1030hPa SSE 6.0mph /  9.7km/h 13.0mph /  20.9km/h 75% 0.00in /  0mm meteobridge W/m2
16:04 36.1 °F /  2.3 °C 28.9 °F /  -1.7 °C 30.41in /  1029.7hPa SSE 6.0mph /  9.7km/h 11.0mph /  17.7km/h 75% 0.00in /  0mm meteobridge W/m2
16:09 36.1 °F /  2.3 °C 28.9 °F /  -1.7 °C 30.41in /  1029.7hPa SSE 6.9mph /  11.1km/h 11.0mph /  17.7km/h 75% 0.00in /  0mm meteobridge W/m2
16:15 36.1 °F /  2.3 °C 28.9 °F /  -1.7 °C 30.40in /  1029.3hPa SE 6.9mph /  11.1km/h 10.0mph /  16.1km/h 75% 0.00in /  0mm meteobridge W/m2
16:20 36.1 °F /  2.3 °C 29.7 °F /  -1.3 °C 30.40in /  1029.3hPa SSE 4.9mph /  7.9km/h 7.0mph /  11.3km/h 77% 0.00in /  0mm meteobridge W/m2
16:25 36.1 °F /  2.3 °C 30.0 °F /  -1.1 °C 30.40in /  1029.3hPa SSE 6.9mph /  11.1km/h 7.0mph /  11.3km/h 78% 0.00in /  0mm meteobridge W/m2
16:30 36.0 °F /  2.2 °C 30.0 °F /  -1.1 °C 30.40in /  1029.3hPa SSE 2.9mph /  4.7km/h 9.0mph /  14.5km/h 79% 0.00in /  0mm meteobridge W/m2
16:35 36.0 °F /  2.2 °C 30.4 °F /  -0.9 °C 30.40in /  1029.3hPa SE 8.1mph /  13km/h 12.0mph /  19.3km/h 80% 0.00in /  0mm meteobridge W/m2
16:40 36.0 °F /  2.2 °C 30.7 °F /  -0.7 °C 30.40in /  1029.3hPa SSE 2.9mph /  4.7km/h 9.0mph /  14.5km/h 81% 0.00in /  0mm meteobridge W/m2
16:45 36.0 °F /  2.2 °C 30.9 °F /  -0.6 °C 30.40in /  1029.3hPa SE 6.9mph /  11.1km/h 7.0mph /  11.3km/h 82% 0.00in /  0mm meteobridge W/m2
16:50 35.8 °F /  2.1 °C 30.7 °F /  -0.7 °C 30.39in /  1029hPa SSE 4.9mph /  7.9km/h 7.0mph /  11.3km/h 82% 0.00in /  0mm meteobridge W/m2
16:55 35.4 °F /  1.9 °C 30.6 °F /  -0.8 °C 30.38in /  1028.7hPa SSE 4.9mph /  7.9km/h 10.0mph /  16.1km/h 82% 0.00in /  0mm meteobridge W/m2
17:00 35.2 °F /  1.8 °C 30.6 °F /  -0.8 °C 30.37in /  1028.3hPa SE 4.9mph /  7.9km/h 11.0mph /  17.7km/h 83% 0.01in /  0.25mm meteobridge W/m2
17:05 35.1 °F /  1.7 °C 30.7 °F /  -0.7 °C 30.37in /  1028.3hPa SSE 12.1mph /  19.5km/h 12.1mph /  19.5km/h 84% 0.01in /  0.25mm meteobridge W/m2
17:10 35.2 °F /  1.8 °C 30.9 °F /  -0.6 °C 30.37in /  1028.3hPa SSW 6.9mph /  11.1km/h 13.0mph /  20.9km/h 84% 0.02in /  0.51mm meteobridge W/m2
17:15 35.1 °F /  1.7 °C 30.7 °F /  -0.7 °C 30.36in /  1028hPa SSE 6.9mph /  11.1km/h 9.0mph /  14.5km/h 84% 0.02in /  0.51mm meteobridge W/m2
17:20 35.1 °F /  1.7 °C 30.9 °F /  -0.6 °C 30.35in /  1027.7hPa SSE 11.0mph /  17.7km/h 13.0mph /  20.9km/h 85% 0.03in /  0.76mm meteobridge W/m2
17:26 34.9 °F /  1.6 °C 30.9 °F /  -0.6 °C 30.34in /  1027.3hPa SE 12.1mph /  19.5km/h 12.1mph /  19.5km/h 85% 0.03in /  0.76mm meteobridge W/m2
17:31 34.9 °F /  1.6 °C 31.1 °F /  -0.5 °C 30.33in /  1027hPa South 8.1mph /  13km/h 12.0mph /  19.3km/h 86% 0.04in /  1.02mm meteobridge W/m2
17:36 34.9 °F /  1.6 °C 31.1 °F /  -0.5 °C 30.33in /  1027hPa SSE 4.9mph /  7.9km/h 11.0mph /  17.7km/h 86% 0.04in /  1.02mm meteobridge W/m2
17:41 34.9 °F /  1.6 °C 31.1 °F /  -0.5 °C 30.32in /  1026.6hPa South 8.9mph /  14.3km/h 12.0mph /  19.3km/h 86% 0.04in /  1.02mm meteobridge W/m2
17:46 34.9 °F /  1.6 °C 31.1 °F /  -0.5 °C 30.31in /  1026.3hPa SSE 13.0mph /  20.9km/h 14.0mph /  22.5km/h 86% 0.04in /  1.02mm meteobridge W/m2
17:51 35.1 °F /  1.7 °C 31.3 °F /  -0.4 °C 30.31in /  1026.3hPa SE 4.9mph /  7.9km/h 13.0mph /  20.9km/h 86% 0.05in /  1.27mm meteobridge W/m2
17:56 35.2 °F /  1.8 °C 31.5 °F /  -0.3 °C 30.30in /  1026hPa SSE 4.9mph /  7.9km/h 12.0mph /  19.3km/h 86% 0.05in /  1.27mm meteobridge W/m2
18:01 35.4 °F /  1.9 °C 32.0 °F /  0 °C 30.30in /  1026hPa SE 11.0mph /  17.7km/h 13.0mph /  20.9km/h 87% 0.04in /  1.02mm meteobridge W/m2
18:06 35.4 °F /  1.9 °C 31.6 °F /  -0.2 °C 30.29in /  1025.6hPa SE 6.0mph /  9.7km/h 16.0mph /  25.7km/h 86% 0.04in /  1.02mm meteobridge W/m2
18:11 35.6 °F /  2 °C 31.8 °F /  -0.1 °C 30.28in /  1025.3hPa SSE 4.9mph /  7.9km/h 14.0mph /  22.5km/h 86% 0.03in /  0.76mm meteobridge W/m2
18:16 35.6 °F /  2 °C 31.8 °F /  -0.1 °C 30.27in /  1024.9hPa SSE 4.0mph /  6.4km/h 14.0mph /  22.5km/h 86% 0.03in /  0.76mm meteobridge W/m2
18:21 35.6 °F /  2 °C 32.2 °F /  0.1 °C 30.27in /  1024.9hPa SE 6.9mph /  11.1km/h 11.0mph /  17.7km/h 87% 0.03in /  0.76mm meteobridge W/m2
18:26 35.6 °F /  2 °C 32.2 °F /  0.1 °C 30.27in /  1024.9hPa SSE 4.0mph /  6.4km/h 14.0mph /  22.5km/h 87% 0.03in /  0.76mm meteobridge W/m2
18:31 35.6 °F /  2 °C 32.2 °F /  0.1 °C 30.28in /  1025.3hPa SSE 10.1mph /  16.3km/h 17.0mph /  27.4km/h 87% 0.02in /  0.51mm meteobridge W/m2
18:37 35.6 °F /  2 °C 32.4 °F /  0.2 °C 30.28in /  1025.3hPa SE 8.9mph /  14.3km/h 17.0mph /  27.4km/h 88% 0.02in /  0.51mm meteobridge W/m2
18:42 35.8 °F /  2.1 °C 32.5 °F /  0.3 °C 30.27in /  1024.9hPa South 4.9mph /  7.9km/h 15.0mph /  24.1km/h 88% 0.02in /  0.51mm meteobridge W/m2
18:47 35.8 °F /  2.1 °C 32.5 °F /  0.3 °C 30.27in /  1024.9hPa SE 4.0mph /  6.4km/h 11.0mph /  17.7km/h 88% 0.02in /  0.51mm meteobridge W/m2
18:52 36.0 °F /  2.2 °C 32.7 °F /  0.4 °C 30.27in /  1024.9hPa SSE 6.0mph /  9.7km/h 13.0mph /  20.9km/h 88% 0.02in /  0.51mm meteobridge W/m2
18:57 35.8 °F /  2.1 °C 32.5 °F /  0.3 °C 30.26in /  1024.6hPa SSE 6.0mph /  9.7km/h 12.0mph /  19.3km/h 88% 0.02in /  0.51mm meteobridge W/m2
19:02 35.8 °F /  2.1 °C 32.5 °F /  0.3 °C 30.24in /  1023.9hPa SSE 8.9mph /  14.3km/h 16.0mph /  25.7km/h 88% 0.02in /  0.51mm meteobridge W/m2
19:07 36.0 °F /  2.2 °C 32.7 °F /  0.4 °C 30.24in /  1023.9hPa South 8.9mph /  14.3km/h 14.0mph /  22.5km/h 88% 0.02in /  0.51mm meteobridge W/m2
19:12 36.0 °F /  2.2 °C 32.7 °F /  0.4 °C 30.24in /  1023.9hPa SE 4.9mph /  7.9km/h 14.0mph /  22.5km/h 88% 0.02in /  0.51mm meteobridge W/m2
19:17 36.0 °F /  2.2 °C 33.1 °F /  0.6 °C 30.24in /  1023.9hPa South 4.9mph /  7.9km/h 11.0mph /  17.7km/h 89% 0.03in /  0.76mm meteobridge W/m2
19:22 36.0 °F /  2.2 °C 33.1 °F /  0.6 °C 30.24in /  1023.9hPa SSE 2.9mph /  4.7km/h 17.0mph /  27.4km/h 89% 0.02in /  0.51mm meteobridge W/m2
19:27 36.0 °F /  2.2 °C 33.1 °F /  0.6 °C 30.23in /  1023.6hPa SSE 6.9mph /  11.1km/h 11.0mph /  17.7km/h 89% 0.02in /  0.51mm meteobridge W/m2
19:32 36.0 °F /  2.2 °C 33.3 °F /  0.7 °C 30.23in /  1023.6hPa SSW 10.1mph /  16.3km/h 12.0mph /  19.3km/h 90% 0.02in /  0.51mm meteobridge W/m2
19:37 36.1 °F /  2.3 °C 33.3 °F /  0.7 °C 30.23in /  1023.6hPa South 6.9mph /  11.1km/h 13.0mph /  20.9km/h 89% 0.02in /  0.51mm meteobridge W/m2
19:42 36.1 °F /  2.3 °C 33.3 °F /  0.7 °C 30.24in /  1023.9hPa South 6.0mph /  9.7km/h 15.0mph /  24.1km/h 89% 0.02in /  0.51mm meteobridge W/m2
19:47 36.0 °F /  2.2 °C 33.3 °F /  0.7 °C 30.23in /  1023.6hPa SSE 4.0mph /  6.4km/h 12.0mph /  19.3km/h 90% 0.02in /  0.51mm meteobridge W/m2
19:52 36.1 °F /  2.3 °C 33.4 °F /  0.8 °C 30.23in /  1023.6hPa South 10.1mph /  16.3km/h 11.0mph /  17.7km/h 90% 0.01in /  0.25mm meteobridge W/m2
19:57 36.3 °F /  2.4 °C 33.6 °F /  0.9 °C 30.22in /  1023.2hPa South 12.1mph /  19.5km/h 17.0mph /  27.4km/h 90% 0.01in /  0.25mm meteobridge W/m2
20:02 36.5 °F /  2.5 °C 33.8 °F /  1 °C 30.21in /  1022.9hPa South 10.1mph /  16.3km/h 14.0mph /  22.5km/h 90% 0.02in /  0.51mm meteobridge W/m2
20:08 36.3 °F /  2.4 °C 33.6 °F /  0.9 °C 30.21in /  1022.9hPa South 16.1mph /  25.9km/h 16.1mph /  25.9km/h 90% 0.02in /  0.51mm meteobridge W/m2
20:13 36.1 °F /  2.3 °C 33.3 °F /  0.7 °C 30.20in /  1022.6hPa South 8.9mph /  14.3km/h 13.0mph /  20.9km/h 89% 0.02in /  0.51mm meteobridge W/m2
20:18 36.1 °F /  2.3 °C 33.3 °F /  0.7 °C 30.19in /  1022.2hPa SE 4.0mph /  6.4km/h 12.0mph /  19.3km/h 89% 0.02in /  0.51mm meteobridge W/m2
20:23 36.1 °F /  2.3 °C 33.3 °F /  0.7 °C 30.19in /  1022.2hPa SSE 4.0mph /  6.4km/h 12.0mph /  19.3km/h 89% 0.02in /  0.51mm meteobridge W/m2
20:28 36.3 °F /  2.4 °C 33.6 °F /  0.9 °C 30.18in /  1021.9hPa SSE 6.0mph /  9.7km/h 14.0mph /  22.5km/h 90% 0.02in /  0.51mm meteobridge W/m2
20:33 36.3 °F /  2.4 °C 33.6 °F /  0.9 °C 30.18in /  1021.9hPa South 6.9mph /  11.1km/h 14.0mph /  22.5km/h 90% 0.02in /  0.51mm meteobridge W/m2
20:38 36.5 °F /  2.5 °C 33.8 °F /  1 °C 30.18in /  1021.9hPa SSE 14.1mph /  22.7km/h 14.1mph /  22.7km/h 90% 0.02in /  0.51mm meteobridge W/m2
20:43 36.5 °F /  2.5 °C 33.8 °F /  1 °C 30.18in /  1021.9hPa South 8.9mph /  14.3km/h 10.0mph /  16.1km/h 90% 0.03in /  0.76mm meteobridge W/m2
20:48 36.3 °F /  2.4 °C 33.6 °F /  0.9 °C 30.18in /  1021.9hPa South 6.9mph /  11.1km/h 13.0mph /  20.9km/h 90% 0.03in /  0.76mm meteobridge W/m2
20:53 36.3 °F /  2.4 °C 33.6 °F /  0.9 °C 30.17in /  1021.6hPa SSW 6.9mph /  11.1km/h 16.0mph /  25.7km/h 90% 0.03in /  0.76mm meteobridge W/m2
20:58 36.5 °F /  2.5 °C 33.8 °F /  1 °C 30.17in /  1021.6hPa SE 8.1mph /  13km/h 13.0mph /  20.9km/h 90% 0.03in /  0.76mm meteobridge W/m2
21:03 36.7 °F /  2.6 °C 34.0 °F /  1.1 °C 30.17in /  1021.6hPa SSW 10.1mph /  16.3km/h 15.0mph /  24.1km/h 90% 0.02in /  0.51mm meteobridge W/m2
21:08 36.7 °F /  2.6 °C 34.0 °F /  1.1 °C 30.16in /  1021.2hPa SSE 2.9mph /  4.7km/h 15.0mph /  24.1km/h 90% 0.03in /  0.76mm meteobridge W/m2
21:13 36.5 °F /  2.5 °C 33.8 °F /  1 °C 30.16in /  1021.2hPa SSE 4.9mph /  7.9km/h 14.0mph /  22.5km/h 90% 0.04in /  1.02mm meteobridge W/m2
21:18 36.7 °F /  2.6 °C 34.3 °F /  1.3 °C 30.16in /  1021.2hPa South 10.1mph /  16.3km/h 15.0mph /  24.1km/h 91% 0.03in /  0.76mm meteobridge W/m2
21:23 36.9 °F /  2.7 °C 34.5 °F /  1.4 °C 30.15in /  1020.9hPa SSW 14.1mph /  22.7km/h 17.0mph /  27.4km/h 91% 0.03in /  0.76mm meteobridge W/m2
21:28 36.9 °F /  2.7 °C 34.5 °F /  1.4 °C 30.14in /  1020.5hPa South 11.0mph /  17.7km/h 14.0mph /  22.5km/h 91% 0.03in /  0.76mm meteobridge W/m2
21:33 37.0 °F /  2.8 °C 34.7 °F /  1.5 °C 30.14in /  1020.5hPa SSW 8.9mph /  14.3km/h 14.0mph /  22.5km/h 91% 0.03in /  0.76mm meteobridge W/m2
21:38 36.9 °F /  2.7 °C 34.5 °F /  1.4 °C 30.13in /  1020.2hPa SSW 4.9mph /  7.9km/h 12.0mph /  19.3km/h 91% 0.04in /  1.02mm meteobridge W/m2
21:43 36.9 °F /  2.7 °C 34.5 °F /  1.4 °C 30.14in /  1020.5hPa SSW 14.1mph /  22.7km/h 16.0mph /  25.7km/h 91% 0.03in /  0.76mm meteobridge W/m2
21:49 36.9 °F /  2.7 °C 34.5 °F /  1.4 °C 30.12in /  1019.9hPa SSW 6.0mph /  9.7km/h 13.0mph /  20.9km/h 91% 0.03in /  0.76mm meteobridge W/m2
21:54 37.0 °F /  2.8 °C 34.7 °F /  1.5 °C 30.12in /  1019.9hPa South 4.0mph /  6.4km/h 13.0mph /  20.9km/h 91% 0.03in /  0.76mm meteobridge W/m2
21:59 37.0 °F /  2.8 °C 34.7 °F /  1.5 °C 30.11in /  1019.5hPa South 4.0mph /  6.4km/h 11.0mph /  17.7km/h 91% 0.03in /  0.76mm meteobridge W/m2
22:04 37.0 °F /  2.8 °C 34.7 °F /  1.5 °C 30.10in /  1019.2hPa SW 4.9mph /  7.9km/h 18.0mph /  29km/h 91% 0.03in /  0.76mm meteobridge W/m2
22:09 37.2 °F /  2.9 °C 34.9 °F /  1.6 °C 30.11in /  1019.5hPa SW 14.1mph /  22.7km/h 14.1mph /  22.7km/h 91% 0.02in /  0.51mm meteobridge W/m2
22:14 37.2 °F /  2.9 °C 34.9 °F /  1.6 °C 30.10in /  1019.2hPa SSW 14.1mph /  22.7km/h 19.0mph /  30.6km/h 91% 0.01in /  0.25mm meteobridge W/m2
22:19 37.4 °F /  3 °C 35.1 °F /  1.7 °C 30.10in /  1019.2hPa SSW 14.1mph /  22.7km/h 16.0mph /  25.7km/h 91% 0.01in /  0.25mm meteobridge W/m2
22:24 37.4 °F /  3 °C 35.1 °F /  1.7 °C 30.09in /  1018.8hPa SW 16.1mph /  25.9km/h 17.0mph /  27.4km/h 91% 0.01in /  0.25mm meteobridge W/m2
22:29 37.6 °F /  3.1 °C 35.2 °F /  1.8 °C 30.09in /  1018.8hPa SW 12.1mph /  19.5km/h 18.0mph /  29km/h 91% 0.01in /  0.25mm meteobridge W/m2
22:34 37.6 °F /  3.1 °C 35.2 °F /  1.8 °C 30.09in /  1018.8hPa SW 6.9mph /  11.1km/h 15.0mph /  24.1km/h 91% 0.01in /  0.25mm meteobridge W/m2
22:39 37.6 °F /  3.1 °C 35.2 °F /  1.8 °C 30.08in /  1018.5hPa SSW 4.9mph /  7.9km/h 17.0mph /  27.4km/h 91% 0.00in /  0mm meteobridge W/m2
22:44 37.4 °F /  3 °C 35.1 °F /  1.7 °C 30.08in /  1018.5hPa South 6.0mph /  9.7km/h 17.0mph /  27.4km/h 91% 0.00in /  0mm meteobridge W/m2
22:49 37.4 °F /  3 °C 35.1 °F /  1.7 °C 30.07in /  1018.2hPa SSW 16.1mph /  25.9km/h 16.1mph /  25.9km/h 91% 0.00in /  0mm meteobridge W/m2
22:55 37.4 °F /  3 °C 35.1 °F /  1.7 °C 30.07in /  1018.2hPa SW 11.0mph /  17.7km/h 15.0mph /  24.1km/h 91% 0.00in /  0mm meteobridge W/m2
23:00 37.4 °F /  3 °C 35.1 °F /  1.7 °C 30.06in /  1017.8hPa SW 6.0mph /  9.7km/h 13.0mph /  20.9km/h 91% 0.00in /  0mm meteobridge W/m2
23:05 37.6 °F /  3.1 °C 35.4 °F /  1.9 °C 30.05in /  1017.5hPa SSW 4.9mph /  7.9km/h 17.0mph /  27.4km/h 92% 0.00in /  0mm meteobridge W/m2
23:10 37.6 °F /  3.1 °C 35.4 °F /  1.9 °C 30.05in /  1017.5hPa SW 4.9mph /  7.9km/h 17.0mph /  27.4km/h 92% 0.01in /  0.25mm meteobridge W/m2
23:15 37.6 °F /  3.1 °C 35.4 °F /  1.9 °C 30.04in /  1017.2hPa SSW 6.9mph /  11.1km/h 12.0mph /  19.3km/h 92% 0.01in /  0.25mm meteobridge W/m2
23:20 37.6 °F /  3.1 °C 35.4 °F /  1.9 °C 30.03in /  1016.8hPa SSW 10.1mph /  16.3km/h 14.0mph /  22.5km/h 92% 0.01in /  0.25mm meteobridge W/m2
23:25 37.6 °F /  3.1 °C 35.4 °F /  1.9 °C 30.03in /  1016.8hPa SSW 10.1mph /  16.3km/h 12.0mph /  19.3km/h 92% 0.01in /  0.25mm meteobridge W/m2
23:30 37.4 °F /  3 °C 35.2 °F /  1.8 °C 30.02in /  1016.5hPa SSW 11.0mph /  17.7km/h 14.0mph /  22.5km/h 92% 0.01in /  0.25mm meteobridge W/m2
23:35 37.4 °F /  3 °C 35.2 °F /  1.8 °C 30.02in /  1016.5hPa SSW 10.1mph /  16.3km/h 15.0mph /  24.1km/h 92% 0.01in /  0.25mm meteobridge W/m2
Cape Small Harbor, Maine, USA
Compliments of Weather Underground - 3.5 mb